sensor_id;sensor_type;location;lat;lon;timestamp;P1;durP1;ratioP1;P2;durP2;ratioP2
4812;SDS011;2420;51.202;8.698;2023-03-23T00:01:53;3.25;;;2.10;;
4812;SDS011;2420;51.202;8.698;2023-03-23T00:04:19;4.10;;;2.30;;
4812;SDS011;2420;51.202;8.698;2023-03-23T00:06:45;4.05;;;2.08;;
4812;SDS011;2420;51.202;8.698;2023-03-23T00:09:12;3.53;;;2.05;;
4812;SDS011;2420;51.202;8.698;2023-03-23T00:11:40;4.88;;;2.40;;
4812;SDS011;2420;51.202;8.698;2023-03-23T00:14:06;3.20;;;1.90;;
4812;SDS011;2420;51.202;8.698;2023-03-23T00:16:38;4.97;;;2.40;;
4812;SDS011;2420;51.202;8.698;2023-03-23T00:19:07;3.47;;;2.35;;
4812;SDS011;2420;51.202;8.698;2023-03-23T00:21:39;4.28;;;2.63;;
4812;SDS011;2420;51.202;8.698;2023-03-23T00:26:38;3.50;;;2.28;;
4812;SDS011;2420;51.202;8.698;2023-03-23T00:29:18;5.97;;;2.30;;
4812;SDS011;2420;51.202;8.698;2023-03-23T00:31:46;3.30;;;2.17;;
4812;SDS011;2420;51.202;8.698;2023-03-23T00:34:13;4.05;;;2.30;;
4812;SDS011;2420;51.202;8.698;2023-03-23T00:37:02;3.13;;;2.17;;
4812;SDS011;2420;51.202;8.698;2023-03-23T00:39:28;3.25;;;2.15;;
4812;SDS011;2420;51.202;8.698;2023-03-23T00:41:53;3.58;;;2.30;;
4812;SDS011;2420;51.202;8.698;2023-03-23T00:44:26;3.03;;;2.13;;
4812;SDS011;2420;51.202;8.698;2023-03-23T00:46:53;3.45;;;2.20;;
4812;SDS011;2420;51.202;8.698;2023-03-23T00:49:21;4.70;;;2.45;;
4812;SDS011;2420;51.202;8.698;2023-03-23T00:51:54;3.13;;;2.08;;
4812;SDS011;2420;51.202;8.698;2023-03-23T00:54:21;4.85;;;2.03;;
4812;SDS011;2420;51.202;8.698;2023-03-23T00:56:47;3.50;;;2.28;;
4812;SDS011;2420;51.202;8.698;2023-03-23T00:59:12;5.72;;;3.03;;
4812;SDS011;2420;51.202;8.698;2023-03-23T01:01:38;2.67;;;2.00;;
4812;SDS011;2420;51.202;8.698;2023-03-23T01:04:04;5.10;;;2.20;;
4812;SDS011;2420;51.202;8.698;2023-03-23T01:06:31;4.55;;;2.58;;
4812;SDS011;2420;51.202;8.698;2023-03-23T01:09:00;4.50;;;2.22;;
4812;SDS011;2420;51.202;8.698;2023-03-23T01:11:27;3.80;;;2.25;;
4812;SDS011;2420;51.202;8.698;2023-03-23T01:13:53;4.55;;;2.13;;
4812;SDS011;2420;51.202;8.698;2023-03-23T01:16:19;4.07;;;2.55;;
4812;SDS011;2420;51.202;8.698;2023-03-23T01:18:46;4.30;;;2.17;;
4812;SDS011;2420;51.202;8.698;2023-03-23T01:21:13;4.85;;;2.40;;
4812;SDS011;2420;51.202;8.698;2023-03-23T01:23:41;2.65;;;2.08;;
4812;SDS011;2420;51.202;8.698;2023-03-23T01:26:11;4.28;;;2.50;;
4812;SDS011;2420;51.202;8.698;2023-03-23T01:28:38;2.85;;;2.10;;
4812;SDS011;2420;51.202;8.698;2023-03-23T01:31:06;2.88;;;2.22;;
4812;SDS011;2420;51.202;8.698;2023-03-23T01:33:33;3.33;;;2.35;;
4812;SDS011;2420;51.202;8.698;2023-03-23T01:36:04;5.57;;;2.08;;
4812;SDS011;2420;51.202;8.698;2023-03-23T01:38:32;3.50;;;2.22;;
4812;SDS011;2420;51.202;8.698;2023-03-23T01:40:58;2.92;;;2.35;;
4812;SDS011;2420;51.202;8.698;2023-03-23T01:43:24;2.92;;;2.20;;
4812;SDS011;2420;51.202;8.698;2023-03-23T01:45:50;4.65;;;2.10;;
4812;SDS011;2420;51.202;8.698;2023-03-23T01:48:34;3.30;;;2.60;;
4812;SDS011;2420;51.202;8.698;2023-03-23T01:51:09;5.28;;;2.28;;
4812;SDS011;2420;51.202;8.698;2023-03-23T01:53:42;3.70;;;2.08;;
4812;SDS011;2420;51.202;8.698;2023-03-23T01:56:10;2.20;;;2.00;;
4812;SDS011;2420;51.202;8.698;2023-03-23T01:58:39;4.72;;;2.40;;
4812;SDS011;2420;51.202;8.698;2023-03-23T02:01:11;3.88;;;2.20;;
4812;SDS011;2420;51.202;8.698;2023-03-23T02:03:39;4.40;;;2.10;;
4812;SDS011;2420;51.202;8.698;2023-03-23T02:06:07;2.75;;;1.98;;
4812;SDS011;2420;51.202;8.698;2023-03-23T02:08:33;3.40;;;2.33;;
4812;SDS011;2420;51.202;8.698;2023-03-23T02:11:00;4.68;;;2.50;;
4812;SDS011;2420;51.202;8.698;2023-03-23T02:13:26;4.70;;;2.60;;
4812;SDS011;2420;51.202;8.698;2023-03-23T02:19:03;2.55;;;2.08;;
4812;SDS011;2420;51.202;8.698;2023-03-23T02:27:03;2.60;;;1.90;;
4812;SDS011;2420;51.202;8.698;2023-03-23T02:37:19;3.30;;;2.20;;
4812;SDS011;2420;51.202;8.698;2023-03-23T02:40:02;3.00;;;2.13;;
4812;SDS011;2420;51.202;8.698;2023-03-23T02:42:38;2.53;;;1.85;;
4812;SDS011;2420;51.202;8.698;2023-03-23T02:45:07;2.97;;;2.10;;
4812;SDS011;2420;51.202;8.698;2023-03-23T02:47:35;2.80;;;2.00;;
4812;SDS011;2420;51.202;8.698;2023-03-23T02:50:04;2.63;;;2.20;;
4812;SDS011;2420;51.202;8.698;2023-03-23T02:52:32;2.50;;;2.28;;
4812;SDS011;2420;51.202;8.698;2023-03-23T02:54:59;5.40;;;2.20;;
4812;SDS011;2420;51.202;8.698;2023-03-23T02:57:26;4.18;;;2.10;;
4812;SDS011;2420;51.202;8.698;2023-03-23T02:59:53;3.55;;;1.90;;
4812;SDS011;2420;51.202;8.698;2023-03-23T03:02:26;3.42;;;1.98;;
4812;SDS011;2420;51.202;8.698;2023-03-23T03:10:22;3.08;;;1.83;;
4812;SDS011;2420;51.202;8.698;2023-03-23T03:12:55;1.98;;;1.77;;
4812;SDS011;2420;51.202;8.698;2023-03-23T03:15:35;3.22;;;1.80;;
4812;SDS011;2420;51.202;8.698;2023-03-23T03:18:12;2.85;;;1.60;;
4812;SDS011;2420;51.202;8.698;2023-03-23T03:20:48;2.03;;;1.77;;
4812;SDS011;2420;51.202;8.698;2023-03-23T03:23:20;3.78;;;1.80;;
4812;SDS011;2420;51.202;8.698;2023-03-23T03:25:47;2.05;;;1.85;;
4812;SDS011;2420;51.202;8.698;2023-03-23T03:28:16;4.35;;;2.00;;
4812;SDS011;2420;51.202;8.698;2023-03-23T03:30:46;2.30;;;1.73;;
4812;SDS011;2420;51.202;8.698;2023-03-23T03:33:14;2.10;;;1.77;;
4812;SDS011;2420;51.202;8.698;2023-03-23T03:35:42;1.85;;;1.65;;
4812;SDS011;2420;51.202;8.698;2023-03-23T03:38:09;1.92;;;1.70;;
4812;SDS011;2420;51.202;8.698;2023-03-23T03:40:35;2.60;;;2.10;;
4812;SDS011;2420;51.202;8.698;2023-03-23T03:43:01;2.25;;;1.60;;
4812;SDS011;2420;51.202;8.698;2023-03-23T03:45:28;2.00;;;1.60;;
4812;SDS011;2420;51.202;8.698;2023-03-23T03:47:53;2.90;;;1.60;;
4812;SDS011;2420;51.202;8.698;2023-03-23T03:50:19;2.67;;;1.63;;
4812;SDS011;2420;51.202;8.698;2023-03-23T03:52:45;2.30;;;1.63;;
4812;SDS011;2420;51.202;8.698;2023-03-23T03:55:11;2.22;;;1.60;;
4812;SDS011;2420;51.202;8.698;2023-03-23T03:57:37;5.38;;;1.73;;
4812;SDS011;2420;51.202;8.698;2023-03-23T04:00:04;3.35;;;1.50;;
4812;SDS011;2420;51.202;8.698;2023-03-23T04:02:46;2.22;;;1.67;;
4812;SDS011;2420;51.202;8.698;2023-03-23T04:05:16;2.10;;;1.77;;
4812;SDS011;2420;51.202;8.698;2023-03-23T04:07:43;1.90;;;1.70;;
4812;SDS011;2420;51.202;8.698;2023-03-23T04:10:11;2.38;;;1.80;;
4812;SDS011;2420;51.202;8.698;2023-03-23T04:12:38;2.42;;;1.73;;
4812;SDS011;2420;51.202;8.698;2023-03-23T04:15:04;2.25;;;1.83;;
4812;SDS011;2420;51.202;8.698;2023-03-23T04:17:32;3.63;;;2.30;;
4812;SDS011;2420;51.202;8.698;2023-03-23T04:19:58;2.90;;;1.90;;
4812;SDS011;2420;51.202;8.698;2023-03-23T04:22:25;2.78;;;2.20;;
4812;SDS011;2420;51.202;8.698;2023-03-23T04:24:55;2.95;;;1.90;;
4812;SDS011;2420;51.202;8.698;2023-03-23T04:27:23;2.63;;;1.83;;
4812;SDS011;2420;51.202;8.698;2023-03-23T04:29:50;3.28;;;2.20;;
4812;SDS011;2420;51.202;8.698;2023-03-23T04:32:15;2.90;;;2.17;;
4812;SDS011;2420;51.202;8.698;2023-03-23T04:34:42;3.70;;;2.00;;
4812;SDS011;2420;51.202;8.698;2023-03-23T04:37:09;3.05;;;2.10;;
4812;SDS011;2420;51.202;8.698;2023-03-23T04:39:35;3.92;;;2.10;;
4812;SDS011;2420;51.202;8.698;2023-03-23T04:42:00;2.33;;;1.95;;
4812;SDS011;2420;51.202;8.698;2023-03-23T04:44:27;3.10;;;2.30;;
4812;SDS011;2420;51.202;8.698;2023-03-23T04:46:52;4.03;;;2.20;;
4812;SDS011;2420;51.202;8.698;2023-03-23T04:49:19;3.67;;;2.22;;
4812;SDS011;2420;51.202;8.698;2023-03-23T04:51:48;2.75;;;2.20;;
4812;SDS011;2420;51.202;8.698;2023-03-23T04:54:15;3.67;;;2.45;;
4812;SDS011;2420;51.202;8.698;2023-03-23T04:56:41;3.22;;;2.47;;
4812;SDS011;2420;51.202;8.698;2023-03-23T04:59:06;5.05;;;2.53;;
4812;SDS011;2420;51.202;8.698;2023-03-23T05:01:32;5.60;;;2.42;;
4812;SDS011;2420;51.202;8.698;2023-03-23T05:03:59;3.35;;;2.45;;
4812;SDS011;2420;51.202;8.698;2023-03-23T05:06:25;2.88;;;2.35;;
4812;SDS011;2420;51.202;8.698;2023-03-23T05:08:51;3.05;;;2.50;;
4812;SDS011;2420;51.202;8.698;2023-03-23T05:11:16;5.32;;;2.60;;
4812;SDS011;2420;51.202;8.698;2023-03-23T05:13:42;3.85;;;2.33;;
4812;SDS011;2420;51.202;8.698;2023-03-23T05:16:09;4.03;;;2.30;;
4812;SDS011;2420;51.202;8.698;2023-03-23T05:18:34;4.85;;;2.28;;
4812;SDS011;2420;51.202;8.698;2023-03-23T05:21:01;3.67;;;2.30;;
4812;SDS011;2420;51.202;8.698;2023-03-23T05:23:27;3.30;;;2.45;;
4812;SDS011;2420;51.202;8.698;2023-03-23T05:25:56;2.78;;;2.17;;
4812;SDS011;2420;51.202;8.698;2023-03-23T05:28:25;2.42;;;2.20;;
4812;SDS011;2420;51.202;8.698;2023-03-23T05:30:51;3.08;;;2.42;;
4812;SDS011;2420;51.202;8.698;2023-03-23T05:33:17;3.15;;;2.67;;
4812;SDS011;2420;51.202;8.698;2023-03-23T05:35:43;3.85;;;2.40;;
4812;SDS011;2420;51.202;8.698;2023-03-23T05:38:10;2.40;;;2.10;;
4812;SDS011;2420;51.202;8.698;2023-03-23T05:40:39;3.88;;;2.47;;
4812;SDS011;2420;51.202;8.698;2023-03-23T05:43:04;5.72;;;2.60;;
4812;SDS011;2420;51.202;8.698;2023-03-23T05:45:30;3.58;;;2.60;;
4812;SDS011;2420;51.202;8.698;2023-03-23T05:47:55;3.40;;;2.50;;
4812;SDS011;2420;51.202;8.698;2023-03-23T05:50:21;3.20;;;2.30;;
4812;SDS011;2420;51.202;8.698;2023-03-23T05:52:47;2.92;;;2.45;;
4812;SDS011;2420;51.202;8.698;2023-03-23T05:55:13;3.80;;;2.65;;
4812;SDS011;2420;51.202;8.698;2023-03-23T05:57:40;3.45;;;2.70;;
4812;SDS011;2420;51.202;8.698;2023-03-23T06:00:05;4.13;;;2.50;;
4812;SDS011;2420;51.202;8.698;2023-03-23T06:02:36;3.00;;;2.70;;
4812;SDS011;2420;51.202;8.698;2023-03-23T06:05:04;6.35;;;3.00;;
4812;SDS011;2420;51.202;8.698;2023-03-23T06:07:30;5.18;;;3.55;;
4812;SDS011;2420;51.202;8.698;2023-03-23T06:09:56;3.78;;;2.97;;
4812;SDS011;2420;51.202;8.698;2023-03-23T06:12:21;4.78;;;3.22;;
4812;SDS011;2420;51.202;8.698;2023-03-23T06:14:47;4.82;;;3.20;;
4812;SDS011;2420;51.202;8.698;2023-03-23T06:17:14;6.55;;;3.53;;
4812;SDS011;2420;51.202;8.698;2023-03-23T06:19:41;4.80;;;3.03;;
4812;SDS011;2420;51.202;8.698;2023-03-23T06:22:06;4.78;;;3.03;;
4812;SDS011;2420;51.202;8.698;2023-03-23T06:24:32;7.30;;;2.95;;
4812;SDS011;2420;51.202;8.698;2023-03-23T06:26:58;3.72;;;2.83;;
4812;SDS011;2420;51.202;8.698;2023-03-23T06:29:24;4.78;;;3.25;;
4812;SDS011;2420;51.202;8.698;2023-03-23T06:31:51;3.90;;;2.92;;
4812;SDS011;2420;51.202;8.698;2023-03-23T06:34:19;5.03;;;3.20;;
4812;SDS011;2420;51.202;8.698;2023-03-23T06:36:44;4.82;;;2.72;;
4812;SDS011;2420;51.202;8.698;2023-03-23T06:39:10;5.10;;;2.90;;
4812;SDS011;2420;51.202;8.698;2023-03-23T06:41:36;4.28;;;3.00;;
4812;SDS011;2420;51.202;8.698;2023-03-23T06:44:02;6.22;;;3.60;;
4812;SDS011;2420;51.202;8.698;2023-03-23T06:46:28;4.10;;;2.92;;
4812;SDS011;2420;51.202;8.698;2023-03-23T06:48:54;4.22;;;3.08;;
4812;SDS011;2420;51.202;8.698;2023-03-23T06:51:20;5.10;;;3.08;;
4812;SDS011;2420;51.202;8.698;2023-03-23T06:53:46;3.75;;;2.92;;
4812;SDS011;2420;51.202;8.698;2023-03-23T06:56:12;3.65;;;2.88;;
4812;SDS011;2420;51.202;8.698;2023-03-23T06:58:38;3.85;;;3.03;;
4812;SDS011;2420;51.202;8.698;2023-03-23T07:01:04;3.47;;;2.83;;
4812;SDS011;2420;51.202;8.698;2023-03-23T07:03:31;3.92;;;2.83;;
4812;SDS011;2420;51.202;8.698;2023-03-23T07:05:57;4.57;;;3.20;;
4812;SDS011;2420;51.202;8.698;2023-03-23T07:08:24;5.50;;;2.92;;
4812;SDS011;2420;51.202;8.698;2023-03-23T07:10:51;4.18;;;3.20;;
4812;SDS011;2420;51.202;8.698;2023-03-23T07:13:18;3.92;;;3.10;;
4812;SDS011;2420;51.202;8.698;2023-03-23T07:15:43;4.80;;;2.60;;
4812;SDS011;2420;51.202;8.698;2023-03-23T07:18:09;3.95;;;2.80;;
4812;SDS011;2420;51.202;8.698;2023-03-23T07:20:35;3.70;;;2.67;;
4812;SDS011;2420;51.202;8.698;2023-03-23T07:23:01;3.78;;;2.55;;
4812;SDS011;2420;51.202;8.698;2023-03-23T07:25:27;3.78;;;2.67;;
4812;SDS011;2420;51.202;8.698;2023-03-23T07:27:53;2.90;;;2.60;;
4812;SDS011;2420;51.202;8.698;2023-03-23T07:30:18;3.65;;;2.78;;
4812;SDS011;2420;51.202;8.698;2023-03-23T07:32:44;3.45;;;2.70;;
4812;SDS011;2420;51.202;8.698;2023-03-23T07:35:10;4.43;;;2.50;;
4812;SDS011;2420;51.202;8.698;2023-03-23T07:37:36;3.65;;;2.53;;
4812;SDS011;2420;51.202;8.698;2023-03-23T07:40:02;4.05;;;2.50;;
4812;SDS011;2420;51.202;8.698;2023-03-23T07:42:52;5.93;;;2.80;;
4812;SDS011;2420;51.202;8.698;2023-03-23T07:45:20;4.80;;;2.65;;
4812;SDS011;2420;51.202;8.698;2023-03-23T07:47:46;6.57;;;2.60;;
4812;SDS011;2420;51.202;8.698;2023-03-23T07:50:12;5.10;;;2.42;;
4812;SDS011;2420;51.202;8.698;2023-03-23T07:52:38;4.55;;;2.00;;
4812;SDS011;2420;51.202;8.698;2023-03-23T07:55:06;3.47;;;2.10;;
4812;SDS011;2420;51.202;8.698;2023-03-23T07:57:33;3.65;;;2.30;;
4812;SDS011;2420;51.202;8.698;2023-03-23T07:59:59;3.30;;;2.00;;
4812;SDS011;2420;51.202;8.698;2023-03-23T08:02:26;4.28;;;2.20;;
4812;SDS011;2420;51.202;8.698;2023-03-23T08:04:52;3.72;;;1.95;;
4812;SDS011;2420;51.202;8.698;2023-03-23T08:07:18;2.72;;;2.03;;
4812;SDS011;2420;51.202;8.698;2023-03-23T08:09:45;3.42;;;2.08;;
4812;SDS011;2420;51.202;8.698;2023-03-23T08:12:11;3.97;;;1.80;;
4812;SDS011;2420;51.202;8.698;2023-03-23T08:14:37;2.80;;;1.77;;
4812;SDS011;2420;51.202;8.698;2023-03-23T08:17:05;3.28;;;1.83;;
4812;SDS011;2420;51.202;8.698;2023-03-23T08:19:30;2.65;;;1.90;;
4812;SDS011;2420;51.202;8.698;2023-03-23T08:22:02;3.50;;;2.13;;
4812;SDS011;2420;51.202;8.698;2023-03-23T08:24:29;2.33;;;1.92;;
4812;SDS011;2420;51.202;8.698;2023-03-23T08:26:55;3.13;;;1.83;;
4812;SDS011;2420;51.202;8.698;2023-03-23T08:29:20;2.92;;;1.92;;
4812;SDS011;2420;51.202;8.698;2023-03-23T08:31:46;2.90;;;2.17;;
4812;SDS011;2420;51.202;8.698;2023-03-23T08:34:12;3.92;;;2.05;;
4812;SDS011;2420;51.202;8.698;2023-03-23T08:36:38;2.38;;;1.85;;
4812;SDS011;2420;51.202;8.698;2023-03-23T08:39:04;2.00;;;1.70;;
4812;SDS011;2420;51.202;8.698;2023-03-23T08:41:30;2.60;;;1.83;;
4812;SDS011;2420;51.202;8.698;2023-03-23T08:43:56;2.75;;;1.75;;
4812;SDS011;2420;51.202;8.698;2023-03-23T08:46:22;2.53;;;1.98;;
4812;SDS011;2420;51.202;8.698;2023-03-23T08:48:48;2.88;;;2.20;;
4812;SDS011;2420;51.202;8.698;2023-03-23T08:51:13;3.10;;;2.13;;
4812;SDS011;2420;51.202;8.698;2023-03-23T08:53:40;2.33;;;1.73;;
4812;SDS011;2420;51.202;8.698;2023-03-23T08:56:06;2.83;;;1.80;;
4812;SDS011;2420;51.202;8.698;2023-03-23T08:58:33;2.35;;;1.70;;
4812;SDS011;2420;51.202;8.698;2023-03-23T09:01:00;2.97;;;2.22;;
4812;SDS011;2420;51.202;8.698;2023-03-23T09:03:26;3.10;;;1.90;;
4812;SDS011;2420;51.202;8.698;2023-03-23T09:05:52;2.08;;;1.80;;
4812;SDS011;2420;51.202;8.698;2023-03-23T09:08:18;3.13;;;1.85;;
4812;SDS011;2420;51.202;8.698;2023-03-23T09:10:43;3.38;;;1.75;;
4812;SDS011;2420;51.202;8.698;2023-03-23T09:13:09;2.00;;;1.80;;
4812;SDS011;2420;51.202;8.698;2023-03-23T09:15:34;3.00;;;1.73;;
4812;SDS011;2420;51.202;8.698;2023-03-23T09:18:01;5.10;;;1.95;;
4812;SDS011;2420;51.202;8.698;2023-03-23T09:20:27;25.02;;;4.47;;
4812;SDS011;2420;51.202;8.698;2023-03-23T09:22:53;3.35;;;2.00;;
4812;SDS011;2420;51.202;8.698;2023-03-23T09:25:25;4.97;;;2.20;;
4812;SDS011;2420;51.202;8.698;2023-03-23T09:27:52;2.30;;;1.60;;
4812;SDS011;2420;51.202;8.698;2023-03-23T09:30:21;2.75;;;1.90;;
4812;SDS011;2420;51.202;8.698;2023-03-23T09:32:57;5.32;;;2.72;;
4812;SDS011;2420;51.202;8.698;2023-03-23T09:35:26;2.30;;;1.90;;
4812;SDS011;2420;51.202;8.698;2023-03-23T09:37:52;3.80;;;1.90;;
4812;SDS011;2420;51.202;8.698;2023-03-23T09:40:20;3.38;;;1.85;;
4812;SDS011;2420;51.202;8.698;2023-03-23T09:42:53;3.08;;;1.85;;
4812;SDS011;2420;51.202;8.698;2023-03-23T09:45:46;3.20;;;1.95;;
4812;SDS011;2420;51.202;8.698;2023-03-23T09:51:19;5.15;;;2.08;;
4812;SDS011;2420;51.202;8.698;2023-03-23T09:53:54;4.18;;;1.90;;
4812;SDS011;2420;51.202;8.698;2023-03-23T09:56:22;3.72;;;2.00;;
4812;SDS011;2420;51.202;8.698;2023-03-23T09:59:00;4.30;;;2.05;;
4812;SDS011;2420;51.202;8.698;2023-03-23T10:01:48;3.40;;;1.80;;
4812;SDS011;2420;51.202;8.698;2023-03-23T10:07:18;3.90;;;1.55;;
4812;SDS011;2420;51.202;8.698;2023-03-23T10:09:47;4.38;;;2.40;;
4812;SDS011;2420;51.202;8.698;2023-03-23T10:12:21;3.67;;;2.00;;
4812;SDS011;2420;51.202;8.698;2023-03-23T10:14:52;3.83;;;2.17;;
4812;SDS011;2420;51.202;8.698;2023-03-23T10:17:33;4.30;;;1.83;;
4812;SDS011;2420;51.202;8.698;2023-03-23T10:25:30;2.85;;;1.95;;
4812;SDS011;2420;51.202;8.698;2023-03-23T10:30:43;3.65;;;1.90;;
4812;SDS011;2420;51.202;8.698;2023-03-23T10:33:25;2.25;;;1.75;;
4812;SDS011;2420;51.202;8.698;2023-03-23T10:36:08;2.78;;;1.90;;
4812;SDS011;2420;51.202;8.698;2023-03-23T10:38:45;4.03;;;1.90;;
4812;SDS011;2420;51.202;8.698;2023-03-23T10:41:18;6.18;;;2.03;;
4812;SDS011;2420;51.202;8.698;2023-03-23T10:43:45;2.60;;;1.70;;
4812;SDS011;2420;51.202;8.698;2023-03-23T10:48:58;6.13;;;2.15;;
4812;SDS011;2420;51.202;8.698;2023-03-23T10:51:31;3.97;;;1.60;;
4812;SDS011;2420;51.202;8.698;2023-03-23T10:54:02;3.63;;;1.90;;
4812;SDS011;2420;51.202;8.698;2023-03-23T10:56:35;4.05;;;1.80;;
4812;SDS011;2420;51.202;8.698;2023-03-23T10:59:17;2.55;;;1.60;;
4812;SDS011;2420;51.202;8.698;2023-03-23T11:01:47;2.65;;;1.50;;
4812;SDS011;2420;51.202;8.698;2023-03-23T11:04:17;3.28;;;2.10;;
4812;SDS011;2420;51.202;8.698;2023-03-23T11:06:48;2.03;;;1.60;;
4812;SDS011;2420;51.202;8.698;2023-03-23T11:09:18;3.25;;;1.70;;
4812;SDS011;2420;51.202;8.698;2023-03-23T11:11:49;3.05;;;1.90;;
4812;SDS011;2420;51.202;8.698;2023-03-23T11:14:24;5.13;;;1.75;;
4812;SDS011;2420;51.202;8.698;2023-03-23T11:16:53;4.22;;;1.70;;
4812;SDS011;2420;51.202;8.698;2023-03-23T11:19:22;3.35;;;1.77;;
4812;SDS011;2420;51.202;8.698;2023-03-23T11:24:34;2.88;;;1.70;;
4812;SDS011;2420;51.202;8.698;2023-03-23T11:27:11;1.88;;;1.50;;
4812;SDS011;2420;51.202;8.698;2023-03-23T11:30:24;3.78;;;1.52;;
4812;SDS011;2420;51.202;8.698;2023-03-23T11:32:27;2.53;;;1.52;;
4812;SDS011;2420;51.202;8.698;2023-03-23T11:34:56;3.42;;;1.40;;
4812;SDS011;2420;51.202;8.698;2023-03-23T11:37:43;2.38;;;1.20;;
4812;SDS011;2420;51.202;8.698;2023-03-23T11:40:14;2.72;;;1.73;;
4812;SDS011;2420;51.202;8.698;2023-03-23T11:42:47;2.60;;;1.40;;
4812;SDS011;2420;51.202;8.698;2023-03-23T11:48:11;2.25;;;1.70;;
4812;SDS011;2420;51.202;8.698;2023-03-23T11:50:55;5.22;;;1.88;;
4812;SDS011;2420;51.202;8.698;2023-03-23T11:56:31;2.00;;;1.60;;
4812;SDS011;2420;51.202;8.698;2023-03-23T11:58:59;3.03;;;1.70;;
4812;SDS011;2420;51.202;8.698;2023-03-23T12:01:46;2.42;;;1.60;;
4812;SDS011;2420;51.202;8.698;2023-03-23T12:18:17;2.05;;;1.70;;
4812;SDS011;2420;51.202;8.698;2023-03-23T12:21:08;1.80;;;1.50;;
4812;SDS011;2420;51.202;8.698;2023-03-23T12:26:15;4.00;;;1.60;;
4812;SDS011;2420;51.202;8.698;2023-03-23T12:31:56;2.35;;;1.60;;
4812;SDS011;2420;51.202;8.698;2023-03-23T12:42:49;2.22;;;1.20;;
4812;SDS011;2420;51.202;8.698;2023-03-23T12:48:19;1.88;;;1.40;;
4812;SDS011;2420;51.202;8.698;2023-03-23T12:51:01;1.55;;;1.30;;
4812;SDS011;2420;51.202;8.698;2023-03-23T12:54:01;1.65;;;1.25;;
4812;SDS011;2420;51.202;8.698;2023-03-23T12:56:39;1.88;;;1.27;;
4812;SDS011;2420;51.202;8.698;2023-03-23T13:01:57;1.63;;;1.30;;
4812;SDS011;2420;51.202;8.698;2023-03-23T13:04:32;1.35;;;1.20;;
4812;SDS011;2420;51.202;8.698;2023-03-23T13:07:02;1.48;;;1.30;;
4812;SDS011;2420;51.202;8.698;2023-03-23T13:09:44;1.85;;;1.20;;
4812;SDS011;2420;51.202;8.698;2023-03-23T13:12:20;1.38;;;1.17;;
4812;SDS011;2420;51.202;8.698;2023-03-23T13:17:48;1.63;;;1.30;;
4812;SDS011;2420;51.202;8.698;2023-03-23T13:23:19;1.23;;;1.10;;
4812;SDS011;2420;51.202;8.698;2023-03-23T13:25:59;1.70;;;1.40;;
4812;SDS011;2420;51.202;8.698;2023-03-23T13:29:05;3.38;;;1.90;;
4812;SDS011;2420;51.202;8.698;2023-03-23T13:31:25;1.85;;;1.30;;
4812;SDS011;2420;51.202;8.698;2023-03-23T13:34:01;3.85;;;1.17;;
4812;SDS011;2420;51.202;8.698;2023-03-23T13:36:37;1.40;;;1.20;;
4812;SDS011;2420;51.202;8.698;2023-03-23T13:39:06;1.90;;;1.40;;
4812;SDS011;2420;51.202;8.698;2023-03-23T13:44:42;1.67;;;1.50;;
4812;SDS011;2420;51.202;8.698;2023-03-23T13:57:53;4.30;;;2.30;;
4812;SDS011;2420;51.202;8.698;2023-03-23T14:10:35;4.25;;;1.48;;
4812;SDS011;2420;51.202;8.698;2023-03-23T14:13:10;1.63;;;1.15;;
4812;SDS011;2420;51.202;8.698;2023-03-23T14:15:44;1.58;;;1.27;;
4812;SDS011;2420;51.202;8.698;2023-03-23T14:18:22;1.92;;;1.35;;
4812;SDS011;2420;51.202;8.698;2023-03-23T14:20:52;2.22;;;1.20;;
4812;SDS011;2420;51.202;8.698;2023-03-23T14:23:18;1.48;;;1.17;;
4812;SDS011;2420;51.202;8.698;2023-03-23T14:25:44;1.48;;;1.25;;
4812;SDS011;2420;51.202;8.698;2023-03-23T14:28:19;1.30;;;1.13;;
4812;SDS011;2420;51.202;8.698;2023-03-23T14:30:46;2.50;;;1.60;;
4812;SDS011;2420;51.202;8.698;2023-03-23T14:33:19;1.90;;;1.40;;
4812;SDS011;2420;51.202;8.698;2023-03-23T14:35:45;2.25;;;1.42;;
4812;SDS011;2420;51.202;8.698;2023-03-23T14:38:21;2.15;;;1.27;;
4812;SDS011;2420;51.202;8.698;2023-03-23T14:40:53;2.80;;;1.60;;
4812;SDS011;2420;51.202;8.698;2023-03-23T14:43:24;3.13;;;1.30;;
4812;SDS011;2420;51.202;8.698;2023-03-23T14:45:52;4.78;;;1.40;;
4812;SDS011;2420;51.202;8.698;2023-03-23T14:48:19;2.13;;;1.33;;
4812;SDS011;2420;51.202;8.698;2023-03-23T14:50:50;2.55;;;1.80;;
4812;SDS011;2420;51.202;8.698;2023-03-23T14:53:39;2.00;;;1.60;;
4812;SDS011;2420;51.202;8.698;2023-03-23T14:56:30;2.95;;;1.70;;
4812;SDS011;2420;51.202;8.698;2023-03-23T14:59:02;7.32;;;3.95;;
4812;SDS011;2420;51.202;8.698;2023-03-23T15:01:30;5.63;;;2.50;;
4812;SDS011;2420;51.202;8.698;2023-03-23T15:04:04;7.15;;;3.60;;
4812;SDS011;2420;51.202;8.698;2023-03-23T15:06:33;5.75;;;3.50;;
4812;SDS011;2420;51.202;8.698;2023-03-23T15:09:02;3.65;;;2.35;;
4812;SDS011;2420;51.202;8.698;2023-03-23T15:11:29;2.42;;;1.70;;
4812;SDS011;2420;51.202;8.698;2023-03-23T15:13:56;4.30;;;2.58;;
4812;SDS011;2420;51.202;8.698;2023-03-23T15:16:25;2.50;;;1.50;;
4812;SDS011;2420;51.202;8.698;2023-03-23T15:18:53;3.50;;;2.15;;
4812;SDS011;2420;51.202;8.698;2023-03-23T15:21:28;2.97;;;1.98;;
4812;SDS011;2420;51.202;8.698;2023-03-23T15:23:54;4.60;;;2.30;;
4812;SDS011;2420;51.202;8.698;2023-03-23T15:28:49;4.00;;;1.67;;
4812;SDS011;2420;51.202;8.698;2023-03-23T15:31:15;2.08;;;1.52;;
4812;SDS011;2420;51.202;8.698;2023-03-23T15:33:41;2.72;;;1.40;;
4812;SDS011;2420;51.202;8.698;2023-03-23T15:36:08;3.38;;;1.50;;
4812;SDS011;2420;51.202;8.698;2023-03-23T15:38:35;2.55;;;1.58;;
4812;SDS011;2420;51.202;8.698;2023-03-23T15:41:03;4.43;;;1.35;;
4812;SDS011;2420;51.202;8.698;2023-03-23T15:46:03;2.88;;;1.55;;
4812;SDS011;2420;51.202;8.698;2023-03-23T15:48:31;3.85;;;2.00;;
4812;SDS011;2420;51.202;8.698;2023-03-23T15:50:57;4.82;;;1.90;;
4812;SDS011;2420;51.202;8.698;2023-03-23T15:53:31;1.95;;;1.67;;
4812;SDS011;2420;51.202;8.698;2023-03-23T15:56:02;3.03;;;1.40;;
4812;SDS011;2420;51.202;8.698;2023-03-23T15:58:28;2.08;;;1.63;;
4812;SDS011;2420;51.202;8.698;2023-03-23T16:00:55;3.03;;;1.75;;
4812;SDS011;2420;51.202;8.698;2023-03-23T16:03:26;6.15;;;2.90;;
4812;SDS011;2420;51.202;8.698;2023-03-23T16:05:55;3.85;;;2.00;;
4812;SDS011;2420;51.202;8.698;2023-03-23T16:08:23;2.80;;;1.85;;
4812;SDS011;2420;51.202;8.698;2023-03-23T16:10:49;2.58;;;1.75;;
4812;SDS011;2420;51.202;8.698;2023-03-23T16:13:15;3.47;;;1.95;;
4812;SDS011;2420;51.202;8.698;2023-03-23T16:15:42;3.17;;;1.60;;
4812;SDS011;2420;51.202;8.698;2023-03-23T16:18:18;2.70;;;1.33;;
4812;SDS011;2420;51.202;8.698;2023-03-23T16:20:45;2.83;;;1.50;;
4812;SDS011;2420;51.202;8.698;2023-03-23T16:23:11;2.60;;;1.52;;
4812;SDS011;2420;51.202;8.698;2023-03-23T16:25:37;3.25;;;1.85;;
4812;SDS011;2420;51.202;8.698;2023-03-23T16:28:03;4.30;;;1.90;;
4812;SDS011;2420;51.202;8.698;2023-03-23T16:30:31;4.00;;;1.52;;
4812;SDS011;2420;51.202;8.698;2023-03-23T16:32:58;3.33;;;2.25;;
4812;SDS011;2420;51.202;8.698;2023-03-23T16:35:24;2.47;;;1.65;;
4812;SDS011;2420;51.202;8.698;2023-03-23T16:37:50;3.00;;;1.70;;
4812;SDS011;2420;51.202;8.698;2023-03-23T16:40:17;2.85;;;1.60;;
4812;SDS011;2420;51.202;8.698;2023-03-23T16:42:44;3.90;;;1.60;;
4812;SDS011;2420;51.202;8.698;2023-03-23T16:45:10;2.70;;;1.55;;
4812;SDS011;2420;51.202;8.698;2023-03-23T16:47:37;2.90;;;1.90;;
4812;SDS011;2420;51.202;8.698;2023-03-23T16:50:04;3.28;;;1.90;;
4812;SDS011;2420;51.202;8.698;2023-03-23T16:52:30;3.00;;;1.88;;
4812;SDS011;2420;51.202;8.698;2023-03-23T16:54:56;2.15;;;1.48;;
4812;SDS011;2420;51.202;8.698;2023-03-23T16:57:22;3.92;;;1.60;;
4812;SDS011;2420;51.202;8.698;2023-03-23T16:59:48;2.38;;;1.65;;
4812;SDS011;2420;51.202;8.698;2023-03-23T17:02:13;3.22;;;1.50;;
4812;SDS011;2420;51.202;8.698;2023-03-23T17:04:43;2.30;;;1.50;;
4812;SDS011;2420;51.202;8.698;2023-03-23T17:07:10;3.78;;;1.55;;
4812;SDS011;2420;51.202;8.698;2023-03-23T17:09:40;4.68;;;2.90;;
4812;SDS011;2420;51.202;8.698;2023-03-23T17:12:05;4.43;;;2.45;;
4812;SDS011;2420;51.202;8.698;2023-03-23T17:14:31;4.13;;;2.85;;
4812;SDS011;2420;51.202;8.698;2023-03-23T17:16:57;4.05;;;2.45;;
4812;SDS011;2420;51.202;8.698;2023-03-23T17:19:23;2.65;;;1.83;;
4812;SDS011;2420;51.202;8.698;2023-03-23T17:21:48;4.40;;;3.00;;
4812;SDS011;2420;51.202;8.698;2023-03-23T17:24:15;3.80;;;2.15;;
4812;SDS011;2420;51.202;8.698;2023-03-23T17:26:41;4.07;;;2.00;;